Mirage, Colorado
Current Conditions -  °F | °C
As of 3:11 AM on Thursday 23 Oct 2014 (Local Time) from K04V Reporting Station
Clear Clear  
Wind Chill:   Ceiling: Unl
Heat Index:   Visibility: 10mi
Dew Point:   Wind: 12mph
Humidity: 70%   Direction: 350°N
Pressure: 30.32"   Gusts: NA
Location:  37.9777°N, 105.779°W
Report Text: K04V 230911Z AUTO 35010KT 10SM CLR 05/00 A3032 RMK AO2
Loading
Personal Weather Stations






























Interactive Weather Map
Tropical Storm Tracking
New forecast layout! Learn more

10-Day Weather Forecast

Advertisements
Track Severe Weather on mobile